sensor_id;sensor_type;location;lat;lon;timestamp;temperature;humidity
20438;DHT22;65664;50.380;8.812;2024-01-06T05:53:33;6.70;90.90
20438;DHT22;65664;50.380;8.812;2024-01-06T05:56:05;6.80;91.50
20438;DHT22;65664;50.380;8.812;2024-01-06T05:58:38;6.80;91.30
20438;DHT22;65664;50.380;8.812;2024-01-06T06:01:06;7.00;90.70
20438;DHT22;65664;50.380;8.812;2024-01-06T06:03:34;7.00;89.60
20438;DHT22;65664;50.380;8.812;2024-01-06T15:51:41;7.40;93.80
20438;DHT22;65664;50.380;8.812;2024-01-06T15:54:11;7.50;94.00
20438;DHT22;65664;50.380;8.812;2024-01-06T15:56:41;7.40;93.30
20438;DHT22;65664;50.380;8.812;2024-01-06T15:59:09;7.60;92.80
20438;DHT22;65664;50.380;8.812;2024-01-06T16:36:26;7.30;90.70
20438;DHT22;65664;50.380;8.812;2024-01-06T16:38:54;7.30;91.60
20438;DHT22;65664;50.380;8.812;2024-01-06T16:41:21;7.40;91.20
20438;DHT22;65664;50.380;8.812;2024-01-06T16:43:52;7.60;90.70
20438;DHT22;65664;50.380;8.812;2024-01-06T16:46:19;7.70;90.00
20438;DHT22;65664;50.380;8.812;2024-01-06T16:48:48;7.70;87.80
20438;DHT22;65664;50.380;8.812;2024-01-06T16:51:15;7.80;86.60
20438;DHT22;65664;50.380;8.812;2024-01-06T16:53:53;7.80;84.10
20438;DHT22;65664;50.380;8.812;2024-01-06T16:56:23;7.80;83.60
20438;DHT22;65664;50.380;8.812;2024-01-06T16:58:56;7.80;83.40
20438;DHT22;65664;50.380;8.812;2024-01-06T17:01:23;7.90;83.30
20438;DHT22;65664;50.380;8.812;2024-01-06T17:03:51;7.90;82.00
20438;DHT22;65664;50.380;8.812;2024-01-06T17:48:18;7.10;87.10
20438;DHT22;65664;50.380;8.812;2024-01-06T17:50:45;7.20;88.70
20438;DHT22;65664;50.380;8.812;2024-01-06T17:53:12;7.20;89.80
20438;DHT22;65664;50.380;8.812;2024-01-06T17:55:42;7.40;88.50
20438;DHT22;65664;50.380;8.812;2024-01-06T17:58:11;7.50;84.70
20438;DHT22;65664;50.380;8.812;2024-01-06T18:00:39;7.50;84.90
20438;DHT22;65664;50.380;8.812;2024-01-06T18:03:09;7.60;83.80
20438;DHT22;65664;50.380;8.812;2024-01-06T18:05:43;7.70;83.40
20438;DHT22;65664;50.380;8.812;2024-01-06T18:08:13;7.70;82.40
20438;DHT22;65664;50.380;8.812;2024-01-06T19:27:50;6.90;91.60
20438;DHT22;65664;50.380;8.812;2024-01-06T19:30:19;7.00;93.30
20438;DHT22;65664;50.380;8.812;2024-01-06T19:32:54;7.10;92.00
20438;DHT22;65664;50.380;8.812;2024-01-06T19:35:24;7.10;91.80
20438;DHT22;65664;50.380;8.812;2024-01-06T19:38:00;7.20;91.20
20438;DHT22;65664;50.380;8.812;2024-01-06T19:40:34;7.20;91.10
20438;DHT22;65664;50.380;8.812;2024-01-06T19:43:18;7.10;90.80
20438;DHT22;65664;50.380;8.812;2024-01-06T19:45:51;7.20;91.10
20438;DHT22;65664;50.380;8.812;2024-01-06T19:48:20;7.10;90.80
20438;DHT22;65664;50.380;8.812;2024-01-06T19:50:53;7.20;91.10
20438;DHT22;65664;50.380;8.812;2024-01-06T19:53:23;7.20;91.00
20438;DHT22;65664;50.380;8.812;2024-01-06T19:55:52;7.20;90.70
20438;DHT22;65664;50.380;8.812;2024-01-06T19:58:29;7.20;90.70
20438;DHT22;65664;50.380;8.812;2024-01-06T20:01:04;7.10;89.70
20438;DHT22;65664;50.380;8.812;2024-01-06T20:03:48;7.10;90.80
20438;DHT22;65664;50.380;8.812;2024-01-06T20:06:32;7.10;90.50
20438;DHT22;65664;50.380;8.812;2024-01-06T20:37:16;6.60;93.50
20438;DHT22;65664;50.380;8.812;2024-01-06T20:39:46;6.70;94.90
20438;DHT22;65664;50.380;8.812;2024-01-06T20:42:22;6.70;94.50
20438;DHT22;65664;50.380;8.812;2024-01-06T20:44:50;6.70;93.90
20438;DHT22;65664;50.380;8.812;2024-01-06T20:47:17;6.90;93.80
20438;DHT22;65664;50.380;8.812;2024-01-06T20:49:44;6.80;93.00
20438;DHT22;65664;50.380;8.812;2024-01-06T20:52:12;6.80;92.90
20438;DHT22;65664;50.380;8.812;2024-01-06T20:54:41;6.80;92.80
20438;DHT22;65664;50.380;8.812;2024-01-06T21:45:53;6.60;92.70
